createdAt,value
2023-05-10T00:00:21.984Z,46.78
2023-05-10T00:01:22.007Z,46.70
2023-05-10T00:02:22.075Z,46.60
2023-05-10T00:03:22.158Z,46.57
2023-05-10T00:04:22.134Z,46.55
2023-05-10T00:05:22.175Z,46.49
2023-05-10T00:06:22.212Z,46.42
2023-05-10T00:07:22.265Z,46.42
2023-05-10T00:08:22.304Z,46.43
2023-05-10T00:09:22.351Z,46.41
2023-05-10T00:10:22.397Z,46.38
2023-05-10T00:11:23.194Z,46.35
2023-05-10T00:12:22.534Z,46.34
2023-05-10T00:13:22.604Z,46.29
2023-05-10T00:14:22.647Z,46.26
2023-05-10T00:15:22.750Z,46.28
2023-05-10T00:16:22.823Z,46.29
2023-05-10T00:17:22.765Z,46.29
2023-05-10T00:18:22.845Z,46.30
2023-05-10T00:19:22.877Z,46.29
2023-05-10T00:20:22.927Z,46.28
2023-05-10T00:21:22.979Z,46.26
2023-05-10T00:22:23.032Z,46.25
2023-05-10T00:23:23.079Z,46.25
2023-05-10T00:24:23.132Z,46.28
2023-05-10T00:25:23.206Z,46.25
2023-05-10T00:26:23.253Z,46.24
2023-05-10T00:27:23.323Z,46.25
2023-05-10T00:28:23.390Z,46.27
2023-05-10T00:29:23.411Z,46.27
2023-05-10T00:30:23.476Z,46.28
2023-05-10T00:31:23.544Z,46.24
2023-05-10T00:32:23.650Z,46.25
2023-05-10T00:33:23.611Z,46.23
2023-05-10T00:34:23.666Z,46.23
2023-05-10T00:35:23.735Z,46.23
2023-05-10T00:36:23.758Z,46.24
2023-05-10T00:37:23.822Z,46.23
2023-05-10T00:38:23.847Z,46.23
2023-05-10T00:39:23.890Z,46.24
2023-05-10T00:40:23.932Z,46.24
2023-05-10T00:41:23.963Z,46.24
2023-05-10T00:42:24.017Z,46.26
2023-05-10T00:43:24.060Z,46.22
2023-05-10T00:44:24.206Z,46.25
2023-05-10T00:45:24.179Z,46.21
2023-05-10T00:46:24.273Z,46.22
2023-05-10T00:47:24.292Z,46.24
2023-05-10T00:48:24.331Z,46.20
2023-05-10T00:49:24.385Z,46.18
2023-05-10T00:50:24.452Z,46.20
2023-05-10T00:51:24.498Z,46.20
2023-05-10T00:52:24.491Z,46.20
2023-05-10T00:53:24.555Z,46.16
2023-05-10T00:54:24.585Z,46.19
2023-05-10T00:55:24.617Z,46.18
2023-05-10T00:56:24.680Z,46.17
2023-05-10T00:57:24.686Z,46.19
2023-05-10T00:58:24.746Z,46.18
2023-05-10T00:59:24.775Z,46.17
2023-05-10T01:00:24.819Z,46.15
2023-05-10T01:01:24.860Z,46.16
2023-05-10T01:02:24.961Z,46.16
2023-05-10T01:03:24.913Z,46.16
2023-05-10T01:04:24.932Z,46.11
2023-05-10T01:05:24.952Z,46.15
2023-05-10T01:06:24.973Z,46.13
2023-05-10T01:07:24.992Z,46.14
2023-05-10T01:08:25.026Z,46.14
2023-05-10T01:09:25.061Z,46.15
2023-05-10T01:10:25.088Z,46.14
2023-05-10T01:11:25.129Z,46.14
2023-05-10T01:12:25.292Z,46.13
2023-05-10T01:13:25.288Z,46.13
2023-05-10T01:14:25.253Z,46.15
2023-05-10T01:15:25.293Z,46.16
2023-05-10T01:16:25.543Z,46.15
2023-05-10T01:17:25.418Z,46.14
2023-05-10T01:18:25.456Z,46.16
2023-05-10T01:19:25.510Z,46.15
2023-05-10T01:20:25.547Z,46.16
2023-05-10T01:21:25.565Z,46.16
2023-05-10T01:22:25.598Z,46.16
2023-05-10T01:23:25.641Z,46.16
2023-05-10T01:24:25.671Z,46.17
2023-05-10T01:25:25.712Z,46.17
2023-05-10T01:26:25.766Z,46.20
2023-05-10T01:27:25.814Z,46.17
2023-05-10T01:28:25.856Z,46.17
2023-05-10T01:29:25.914Z,46.17
2023-05-10T01:30:26.147Z,46.20
2023-05-10T01:31:26.016Z,46.20
2023-05-10T01:32:26.108Z,46.16
2023-05-10T01:33:26.053Z,46.16
2023-05-10T01:34:26.086Z,46.18
2023-05-10T01:35:26.139Z,46.18
2023-05-10T01:36:26.155Z,46.23
2023-05-10T01:37:26.187Z,46.22
2023-05-10T01:38:26.210Z,46.19
2023-05-10T01:39:26.233Z,46.21
2023-05-10T01:40:26.292Z,46.18
2023-05-10T01:41:26.294Z,46.19
2023-05-10T01:42:26.311Z,46.16
2023-05-10T01:43:26.332Z,46.21
2023-05-10T01:44:26.349Z,46.22
2023-05-10T01:45:26.371Z,46.21
2023-05-10T01:46:26.423Z,46.22
2023-05-10T01:47:26.442Z,46.21
2023-05-10T01:48:26.481Z,46.21
2023-05-10T01:49:26.484Z,46.19
2023-05-10T01:50:26.502Z,46.22
2023-05-10T01:51:26.578Z,46.22
2023-05-10T01:52:26.559Z,46.22
2023-05-10T01:53:26.605Z,46.22
2023-05-10T01:54:26.616Z,46.21
2023-05-10T01:55:26.654Z,46.21
2023-05-10T01:56:26.677Z,46.21
2023-05-10T01:57:26.697Z,46.22
2023-05-10T01:58:26.701Z,46.22
2023-05-10T01:59:26.726Z,46.23
2023-05-10T02:00:26.754Z,46.23
2023-05-10T02:01:26.793Z,46.24
2023-05-10T02:02:26.920Z,46.24
2023-05-10T02:03:26.883Z,46.22
2023-05-10T02:04:26.928Z,46.22
2023-05-10T02:05:26.939Z,46.22
2023-05-10T02:06:26.973Z,46.24
2023-05-10T02:07:27.006Z,46.25
2023-05-10T02:08:27.019Z,46.23
2023-05-10T02:09:27.047Z,46.25
2023-05-10T02:10:27.076Z,46.23
2023-05-10T02:11:27.087Z,46.24
2023-05-10T02:12:27.118Z,46.22
2023-05-10T02:13:27.302Z,46.22
2023-05-10T02:14:27.156Z,46.24
2023-05-10T02:15:27.177Z,46.25
2023-05-10T02:16:27.236Z,46.23
2023-05-10T02:17:27.248Z,46.22
2023-05-10T02:18:27.253Z,46.24
2023-05-10T02:19:27.256Z,46.23
2023-05-10T02:20:27.293Z,46.22
2023-05-10T02:21:27.294Z,46.26
2023-05-10T02:22:27.324Z,46.24
2023-05-10T02:23:27.330Z,46.22
2023-05-10T02:24:27.355Z,46.26
2023-05-10T02:25:27.358Z,46.25
2023-05-10T02:26:27.362Z,46.23
2023-05-10T02:27:27.383Z,46.25
2023-05-10T02:28:27.392Z,46.23
2023-05-10T02:29:27.395Z,46.26
2023-05-10T02:30:27.414Z,46.25
2023-05-10T02:31:27.482Z,46.21
2023-05-10T02:32:27.426Z,46.24
2023-05-10T02:33:27.417Z,46.23
2023-05-10T02:34:27.426Z,46.26
2023-05-10T02:35:27.420Z,46.26
2023-05-10T02:36:27.442Z,46.25
2023-05-10T02:37:27.430Z,46.26
2023-05-10T02:38:27.433Z,46.26
2023-05-10T02:39:27.464Z,46.26
2023-05-10T02:40:28.948Z,46.23
2023-05-10T02:41:27.534Z,46.25
2023-05-10T02:42:27.535Z,46.26
2023-05-10T02:43:27.552Z,46.25
2023-05-10T02:44:27.551Z,46.27
2023-05-10T02:45:27.564Z,46.25
2023-05-10T02:46:27.652Z,46.24
2023-05-10T02:47:27.603Z,46.28
2023-05-10T02:48:27.607Z,46.25
2023-05-10T02:49:27.633Z,46.24
2023-05-10T02:50:27.628Z,46.28
2023-05-10T02:51:27.653Z,46.21
2023-05-10T02:52:27.761Z,46.25
2023-05-10T02:53:27.681Z,46.25
2023-05-10T02:54:27.685Z,46.25
2023-05-10T02:55:27.680Z,46.27
2023-05-10T02:56:27.701Z,46.26
2023-05-10T02:57:27.700Z,46.25
2023-05-10T02:58:27.705Z,46.24
2023-05-10T02:59:27.700Z,46.26
2023-05-10T03:00:27.704Z,46.25
2023-05-10T03:01:27.721Z,46.25
2023-05-10T03:02:27.720Z,46.26
2023-05-10T03:03:27.706Z,46.24
2023-05-10T03:04:27.731Z,46.27
2023-05-10T03:05:27.709Z,46.25
2023-05-10T03:06:27.716Z,46.26
2023-05-10T03:07:27.728Z,46.27
2023-05-10T03:08:27.758Z,46.24
2023-05-10T03:09:27.725Z,46.26
2023-05-10T03:10:27.719Z,46.27
2023-05-10T03:11:27.714Z,46.26
2023-05-10T03:12:27.733Z,46.28
2023-05-10T03:13:27.882Z,46.24
2023-05-10T03:14:27.748Z,46.26
2023-05-10T03:15:27.754Z,46.26
2023-05-10T03:16:27.885Z,46.27
2023-05-10T03:17:27.854Z,46.27
2023-05-10T03:18:27.808Z,46.26
2023-05-10T03:19:27.814Z,46.27
2023-05-10T03:20:27.820Z,46.27
2023-05-10T03:21:27.824Z,46.27
2023-05-10T03:22:27.840Z,46.26
2023-05-10T03:23:27.830Z,46.26
2023-05-10T03:24:27.871Z,46.25
2023-05-10T03:25:27.849Z,46.26
2023-05-10T03:26:27.884Z,46.26
2023-05-10T03:27:27.856Z,46.25
2023-05-10T03:28:27.862Z,46.26
2023-05-10T03:29:27.862Z,46.29
2023-05-10T03:30:27.865Z,46.26
2023-05-10T03:31:27.968Z,46.26
2023-05-10T03:32:27.903Z,46.27
2023-05-10T03:33:27.882Z,46.26
2023-05-10T03:34:27.880Z,46.27
2023-05-10T03:35:27.895Z,46.27
2023-05-10T03:36:27.893Z,46.29
2023-05-10T03:37:27.905Z,46.27
2023-05-10T03:38:30.251Z,46.27
2023-05-10T03:39:27.897Z,46.27
2023-05-10T03:40:27.920Z,46.27
2023-05-10T03:41:27.877Z,46.26
2023-05-10T03:42:27.870Z,46.26
2023-05-10T03:43:27.857Z,46.26
2023-05-10T03:44:27.859Z,46.28
2023-05-10T03:45:27.852Z,46.27
2023-05-10T03:46:27.882Z,46.28
2023-05-10T03:47:27.859Z,46.30
2023-05-10T03:48:27.825Z,46.26
2023-05-10T03:49:27.828Z,46.27
2023-05-10T03:50:27.825Z,46.27
2023-05-10T03:51:27.792Z,46.27
2023-05-10T03:52:27.806Z,46.28
2023-05-10T03:53:27.805Z,46.27
2023-05-10T03:54:27.776Z,46.26
2023-05-10T03:55:27.794Z,46.27
2023-05-10T03:56:27.832Z,46.29
2023-05-10T03:57:27.753Z,46.24
2023-05-10T03:58:27.751Z,46.27
2023-05-10T03:59:27.750Z,46.26
2023-05-10T04:00:27.738Z,46.27
2023-05-10T04:01:27.730Z,46.27
2023-05-10T04:02:27.861Z,46.28
2023-05-10T04:03:27.822Z,46.26
2023-05-10T04:04:27.707Z,46.28
2023-05-10T04:05:27.725Z,46.26
2023-05-10T04:06:27.726Z,46.28
2023-05-10T04:07:27.692Z,46.27
2023-05-10T04:08:27.675Z,46.27
2023-05-10T04:09:27.670Z,46.27
2023-05-10T04:10:27.700Z,46.25
2023-05-10T04:11:27.646Z,46.28
2023-05-10T04:12:27.675Z,46.24
2023-05-10T04:13:27.703Z,46.27
2023-05-10T04:14:27.626Z,46.28
2023-05-10T04:15:27.618Z,46.27
2023-05-10T04:16:27.635Z,46.26
2023-05-10T04:17:27.622Z,46.27
2023-05-10T04:18:27.599Z,46.25
2023-05-10T04:19:27.594Z,46.27
2023-05-10T04:20:27.580Z,46.27
2023-05-10T04:21:27.595Z,46.28
2023-05-10T04:22:27.573Z,46.29
2023-05-10T04:23:27.564Z,46.30
2023-05-10T04:24:27.561Z,46.28
2023-05-10T04:25:27.546Z,46.28
2023-05-10T04:26:27.536Z,46.27
2023-05-10T04:27:27.550Z,46.29
2023-05-10T04:28:27.546Z,46.29
2023-05-10T04:29:27.537Z,46.26
2023-05-10T04:30:27.515Z,46.28
2023-05-10T04:31:27.531Z,46.27
2023-05-10T04:32:27.520Z,46.28
2023-05-10T04:33:27.487Z,46.26
2023-05-10T04:34:27.485Z,46.25
2023-05-10T04:35:27.479Z,46.26
2023-05-10T04:36:27.471Z,46.27
2023-05-10T04:37:27.467Z,46.28
2023-05-10T04:38:27.458Z,46.25
2023-05-10T04:39:27.461Z,46.27
2023-05-10T04:40:27.441Z,46.27
2023-05-10T04:41:27.430Z,46.26
2023-05-10T04:42:27.460Z,46.26
2023-05-10T04:43:27.424Z,46.26
2023-05-10T04:44:27.438Z,46.27
2023-05-10T04:45:27.426Z,46.27
2023-05-10T04:46:27.425Z,46.28
2023-05-10T04:47:27.424Z,46.27
2023-05-10T04:48:27.401Z,46.28
2023-05-10T04:49:27.384Z,46.25
2023-05-10T04:50:27.375Z,46.27
2023-05-10T04:51:27.364Z,46.24
2023-05-10T04:52:27.356Z,46.25
2023-05-10T04:53:27.354Z,46.24
2023-05-10T04:54:27.345Z,46.26
2023-05-10T04:55:27.336Z,46.27
2023-05-10T04:56:27.356Z,46.26
2023-05-10T04:57:27.364Z,46.25
2023-05-10T04:58:27.373Z,46.24
2023-05-10T04:59:27.375Z,46.26
2023-05-10T05:00:27.416Z,46.24
2023-05-10T05:01:27.421Z,46.26
2023-05-10T05:02:27.449Z,46.27
2023-05-10T05:03:27.492Z,46.27
2023-05-10T05:04:27.429Z,46.25
2023-05-10T05:05:27.441Z,46.25
2023-05-10T05:06:27.468Z,46.28
2023-05-10T05:07:27.489Z,46.24
2023-05-10T05:08:27.503Z,46.26
2023-05-10T05:09:27.542Z,46.24
2023-05-10T05:10:27.500Z,46.25
2023-05-10T05:11:27.522Z,46.27
2023-05-10T05:12:27.585Z,46.23
2023-05-10T05:13:27.684Z,46.27
2023-05-10T05:14:27.560Z,46.25
2023-05-10T05:15:27.584Z,46.26
2023-05-10T05:16:27.756Z,46.26
2023-05-10T05:17:27.652Z,46.26
2023-05-10T05:18:27.606Z,46.24
2023-05-10T05:19:27.700Z,46.27
2023-05-10T05:20:27.660Z,46.26
2023-05-10T05:21:27.669Z,46.27
2023-05-10T05:22:27.657Z,46.27
2023-05-10T05:23:27.698Z,46.28
2023-05-10T05:24:27.713Z,46.32
2023-05-10T05:25:27.712Z,46.35
2023-05-10T05:26:27.724Z,46.33
2023-05-10T05:27:27.752Z,46.35
2023-05-10T05:28:27.723Z,46.35
2023-05-10T05:29:27.755Z,46.40
2023-05-10T05:30:27.781Z,46.45
2023-05-10T05:31:27.837Z,46.42
2023-05-10T05:32:27.842Z,46.48
2023-05-10T05:33:27.785Z,46.49
2023-05-10T05:34:27.799Z,46.50
2023-05-10T05:35:27.819Z,46.50
2023-05-10T05:36:27.812Z,46.48
2023-05-10T05:37:28.923Z,46.53
2023-05-10T05:38:27.834Z,46.51
2023-05-10T05:39:27.826Z,46.57
2023-05-10T05:40:27.840Z,46.58
2023-05-10T05:41:28.235Z,46.56
2023-05-10T05:42:27.834Z,46.59
2023-05-10T05:43:27.851Z,46.65
2023-05-10T05:44:28.198Z,46.65
2023-05-10T05:45:27.852Z,46.69
2023-05-10T05:46:27.900Z,46.70
2023-05-10T05:47:27.853Z,46.79
2023-05-10T05:48:27.883Z,46.79
2023-05-10T05:49:31.498Z,46.74
2023-05-10T05:50:28.205Z,46.76
2023-05-10T05:51:27.869Z,46.76
2023-05-10T05:52:27.863Z,46.80
2023-05-10T05:53:27.866Z,46.96
2023-05-10T05:54:28.205Z,47.10
2023-05-10T05:55:27.837Z,47.03
2023-05-10T05:56:27.815Z,47.21
2023-05-10T05:57:27.804Z,47.34
2023-05-10T05:58:28.214Z,47.33
2023-05-10T05:59:28.230Z,47.35
2023-05-10T06:00:27.833Z,47.32
2023-05-10T06:01:27.804Z,47.33
2023-05-10T06:02:27.839Z,47.76
2023-05-10T06:03:27.885Z,47.97
2023-05-10T06:04:27.362Z,47.93
2023-05-10T06:05:28.801Z,48.01
2023-05-10T06:06:27.763Z,48.05
2023-05-10T06:07:28.439Z,48.07
2023-05-10T06:08:27.754Z,48.18
2023-05-10T06:09:27.736Z,48.26
2023-05-10T06:10:27.810Z,48.48
2023-05-10T06:11:27.735Z,48.65
2023-05-10T06:12:28.212Z,48.79
2023-05-10T06:13:27.777Z,48.82
2023-05-10T06:14:28.250Z,48.88
2023-05-10T06:15:28.229Z,48.97
2023-05-10T06:16:27.902Z,49.12
2023-05-10T06:17:27.924Z,49.30
2023-05-10T06:18:27.947Z,49.43
2023-05-10T06:19:27.992Z,49.47
2023-05-10T06:20:28.310Z,49.62
2023-05-10T06:21:28.074Z,49.61
2023-05-10T06:22:28.133Z,49.80
2023-05-10T06:23:28.168Z,49.89
2023-05-10T06:24:28.229Z,50.03
2023-05-10T06:25:28.237Z,50.09
2023-05-10T06:26:28.281Z,50.21
2023-05-10T06:27:28.313Z,50.23
2023-05-10T06:28:28.338Z,50.27
2023-05-10T06:29:28.772Z,50.33
2023-05-10T06:30:28.507Z,50.41
2023-05-10T06:31:28.450Z,50.51
2023-05-10T06:32:28.494Z,50.54
2023-05-10T06:33:28.476Z,50.69
2023-05-10T06:34:28.737Z,50.77
2023-05-10T06:35:28.536Z,50.80
2023-05-10T06:36:28.775Z,50.88
2023-05-10T06:37:28.579Z,50.97
2023-05-10T06:38:28.725Z,51.01
2023-05-10T06:39:28.633Z,51.13
2023-05-10T06:40:28.634Z,51.16
2023-05-10T06:41:28.666Z,51.27
2023-05-10T06:42:28.682Z,51.35
2023-05-10T06:43:28.736Z,51.35
2023-05-10T06:44:28.725Z,51.40
2023-05-10T06:45:29.238Z,51.75
2023-05-10T06:46:28.770Z,51.73
2023-05-10T06:47:28.819Z,51.77
2023-05-10T06:48:28.808Z,51.49
2023-05-10T06:49:29.241Z,51.53
2023-05-10T06:50:29.246Z,51.44
2023-05-10T06:51:28.853Z,51.38
2023-05-10T06:52:28.918Z,51.29
2023-05-10T06:53:28.931Z,51.30
2023-05-10T06:54:29.243Z,51.38
2023-05-10T06:55:36.390Z,51.42
2023-05-10T06:56:28.942Z,51.48
2023-05-10T06:57:31.672Z,51.52
2023-05-10T06:58:29.236Z,51.50
2023-05-10T06:59:29.978Z,51.51
2023-05-10T07:00:36.425Z,51.52
2023-05-10T07:01:28.940Z,51.54
2023-05-10T07:02:29.040Z,51.63
2023-05-10T07:03:28.892Z,51.59
2023-05-10T07:04:29.304Z,51.55
2023-05-10T07:05:29.133Z,51.58
2023-05-10T07:06:33.543Z,51.56
2023-05-10T07:07:28.881Z,51.54
2023-05-10T07:08:28.887Z,51.56
2023-05-10T07:09:28.856Z,51.56
2023-05-10T07:10:29.251Z,51.53
2023-05-10T07:11:28.839Z,51.47
2023-05-10T07:12:28.872Z,51.47
2023-05-10T07:13:28.903Z,51.46
2023-05-10T07:14:29.244Z,51.45
2023-05-10T07:15:28.816Z,51.40
2023-05-10T07:16:29.277Z,51.37
2023-05-10T07:17:28.942Z,51.34
2023-05-10T07:18:28.839Z,51.31
2023-05-10T07:19:28.804Z,51.29
2023-05-10T07:20:28.781Z,51.33
2023-05-10T07:21:29.336Z,51.26
2023-05-10T07:22:28.765Z,51.24
2023-05-10T07:23:28.757Z,51.24
2023-05-10T07:24:28.775Z,51.21
2023-05-10T07:25:28.748Z,51.17
2023-05-10T07:26:28.747Z,51.16
2023-05-10T07:27:28.752Z,51.16
2023-05-10T07:28:28.755Z,51.13
2023-05-10T07:29:28.748Z,51.12
2023-05-10T07:30:28.724Z,51.09
2023-05-10T07:31:28.777Z,51.08
2023-05-10T07:32:29.377Z,51.08
2023-05-10T07:33:32.037Z,51.06
2023-05-10T07:34:28.823Z,51.04
2023-05-10T07:35:29.276Z,50.99
2023-05-10T07:36:28.853Z,50.96
2023-05-10T07:37:28.808Z,50.90
2023-05-10T07:38:28.804Z,50.99
2023-05-10T07:39:28.832Z,50.99
2023-05-10T07:40:29.282Z,50.94
2023-05-10T07:41:28.804Z,51.15
2023-05-10T07:42:28.805Z,51.07
2023-05-10T07:43:28.806Z,51.04
2023-05-10T07:44:29.300Z,51.03
2023-05-10T07:45:29.951Z,51.06
2023-05-10T07:46:28.873Z,51.32
2023-05-10T07:47:30.081Z,51.19
2023-05-10T07:48:28.716Z,51.25
2023-05-10T07:49:28.760Z,51.20
2023-05-10T07:50:28.806Z,51.20
2023-05-10T07:51:28.819Z,51.22
2023-05-10T07:52:29.098Z,51.36
2023-05-10T07:53:28.863Z,51.33
2023-05-10T07:54:29.276Z,51.34
2023-05-10T07:55:28.929Z,51.39
2023-05-10T07:56:28.992Z,51.34
2023-05-10T07:57:29.016Z,51.32
2023-05-10T07:58:30.042Z,51.78
2023-05-10T07:59:29.277Z,51.62
2023-05-10T08:00:29.122Z,51.54
2023-05-10T08:01:29.283Z,51.39
2023-05-10T08:02:29.219Z,51.35
2023-05-10T08:03:29.294Z,51.31
2023-05-10T08:04:29.274Z,51.31
2023-05-10T08:05:29.293Z,51.34
2023-05-10T08:06:29.310Z,51.33
2023-05-10T08:07:29.326Z,51.33
2023-05-10T08:08:29.373Z,51.31
2023-05-10T08:09:29.406Z,51.31
2023-05-10T08:10:29.440Z,51.28
2023-05-10T08:11:29.495Z,51.30
2023-05-10T08:12:29.567Z,51.27
2023-05-10T08:13:29.564Z,51.26
2023-05-10T08:14:29.604Z,51.26
2023-05-10T08:15:29.652Z,51.23
2023-05-10T08:16:29.930Z,51.23
2023-05-10T08:17:29.783Z,51.17
2023-05-10T08:18:29.820Z,51.21
2023-05-10T08:19:29.822Z,51.20
2023-05-10T08:20:30.269Z,51.14
2023-05-10T08:21:29.928Z,51.13
2023-05-10T08:22:29.957Z,51.09
2023-05-10T08:23:30.004Z,51.07
2023-05-10T08:24:30.053Z,51.05
2023-05-10T08:25:30.276Z,51.07
2023-05-10T08:26:30.162Z,51.03
2023-05-10T08:27:30.205Z,50.99
2023-05-10T08:28:30.283Z,50.99
2023-05-10T08:29:32.818Z,50.97
2023-05-10T08:30:30.770Z,50.97
2023-05-10T08:31:30.332Z,50.99
2023-05-10T08:32:30.324Z,50.93
2023-05-10T08:33:31.273Z,50.96
2023-05-10T08:34:30.273Z,50.96
2023-05-10T08:35:30.276Z,50.91
2023-05-10T08:36:30.260Z,50.91
2023-05-10T08:37:30.236Z,50.87
2023-05-10T08:38:30.255Z,50.84
2023-05-10T08:39:30.978Z,50.86
2023-05-10T08:40:33.482Z,50.86
2023-05-10T08:41:30.309Z,50.82
2023-05-10T08:42:31.203Z,50.78
2023-05-10T08:43:30.277Z,50.75
2023-05-10T08:45:30.605Z,50.71
2023-05-10T08:46:31.229Z,50.72
2023-05-10T08:47:30.229Z,50.69
2023-05-10T08:48:30.196Z,50.67
2023-05-10T08:49:30.154Z,50.64
2023-05-10T08:50:30.287Z,50.66
2023-05-10T08:51:30.137Z,50.63
2023-05-10T08:52:30.132Z,50.60
2023-05-10T08:53:30.117Z,50.60
2023-05-10T08:54:30.435Z,50.58
2023-05-10T08:55:30.285Z,50.56
2023-05-10T08:56:30.250Z,50.57
2023-05-10T08:57:30.306Z,50.56
2023-05-10T08:58:30.793Z,50.56
2023-05-10T08:59:30.425Z,50.53
2023-05-10T09:00:30.472Z,50.53
2023-05-10T09:01:30.577Z,50.52
2023-05-10T09:02:30.593Z,50.49
2023-05-10T09:03:30.628Z,50.48
2023-05-10T09:04:30.802Z,50.47
2023-05-10T09:05:30.781Z,50.48
2023-05-10T09:06:30.791Z,50.47
2023-05-10T09:07:30.859Z,50.46
2023-05-10T09:08:30.899Z,50.44
2023-05-10T09:09:31.311Z,50.43
2023-05-10T09:10:31.007Z,50.40
2023-05-10T09:11:34.273Z,50.41
2023-05-10T09:12:31.062Z,50.41
2023-05-10T09:13:31.047Z,50.38
2023-05-10T09:14:31.031Z,50.38
2023-05-10T09:15:31.300Z,50.36
2023-05-10T09:16:31.033Z,50.37
2023-05-10T09:17:31.093Z,50.36
2023-05-10T09:18:31.011Z,50.36
2023-05-10T09:19:30.999Z,50.36
2023-05-10T09:20:31.301Z,50.34
2023-05-10T09:21:30.993Z,50.36
2023-05-10T09:22:31.046Z,50.33
2023-05-10T09:23:30.984Z,50.32
2023-05-10T09:24:30.964Z,50.35
2023-05-10T09:25:31.305Z,50.32
2023-05-10T09:26:30.955Z,50.29
2023-05-10T09:27:30.972Z,50.29
2023-05-10T09:28:30.945Z,50.24
2023-05-10T09:29:31.300Z,51.06
2023-05-10T09:30:30.928Z,50.78
2023-05-10T09:31:30.966Z,50.38
2023-05-10T09:32:30.914Z,50.76
2023-05-10T09:33:46.578Z,50.88
2023-05-10T09:34:31.306Z,51.95
2023-05-10T09:35:31.300Z,51.86
2023-05-10T09:36:30.879Z,51.96
2023-05-10T09:37:30.879Z,52.65
2023-05-10T09:38:31.310Z,53.08
2023-05-10T09:39:30.863Z,52.79
2023-05-10T09:40:30.850Z,52.82
2023-05-10T09:41:30.847Z,52.93
2023-05-10T09:42:30.855Z,53.32
2023-05-10T09:43:31.340Z,53.90
2023-05-10T09:44:30.824Z,54.61
2023-05-10T09:45:31.308Z,54.90
2023-05-10T09:46:30.850Z,55.04
2023-05-10T09:47:30.820Z,55.07
2023-05-10T09:48:30.794Z,55.49
2023-05-10T09:49:30.828Z,55.27
2023-05-10T09:50:30.784Z,55.27
2023-05-10T09:51:30.787Z,55.44
2023-05-10T09:52:30.768Z,55.32
2023-05-10T09:53:30.814Z,55.37
2023-05-10T09:54:30.788Z,55.36
2023-05-10T09:55:30.752Z,55.35
2023-05-10T09:56:30.822Z,55.45
2023-05-10T09:57:31.869Z,55.42
2023-05-10T09:58:46.345Z,55.47
2023-05-10T09:59:30.714Z,55.47
2023-05-10T10:00:30.820Z,55.50
2023-05-10T10:01:30.747Z,55.56
2023-05-10T10:02:30.760Z,55.63
2023-05-10T10:03:30.687Z,55.69
2023-05-10T10:04:30.742Z,55.71
2023-05-10T10:05:30.860Z,55.75
2023-05-10T10:06:30.881Z,55.77
2023-05-10T10:07:30.687Z,55.87
2023-05-10T10:08:30.682Z,55.93
2023-05-10T10:09:30.658Z,55.96
2023-05-10T10:10:30.824Z,56.00
2023-05-10T10:11:30.632Z,56.11
2023-05-10T10:12:30.640Z,56.14
2023-05-10T10:13:30.676Z,56.29
2023-05-10T10:14:30.613Z,56.31
2023-05-10T10:15:30.829Z,56.50
2023-05-10T10:16:30.633Z,56.50
2023-05-10T10:17:30.669Z,56.60
2023-05-10T10:18:30.880Z,56.73
2023-05-10T10:19:30.651Z,56.77
2023-05-10T10:20:30.852Z,56.81
2023-05-10T10:21:30.690Z,56.85
2023-05-10T10:22:30.684Z,56.87
2023-05-10T10:23:30.669Z,56.97
2023-05-10T10:24:30.714Z,57.08
2023-05-10T10:25:30.732Z,57.09
2023-05-10T10:26:30.865Z,57.09
2023-05-10T10:27:30.697Z,57.13
2023-05-10T10:28:30.681Z,57.21
2023-05-10T10:29:30.662Z,57.24
2023-05-10T10:30:30.667Z,57.40
2023-05-10T10:31:30.859Z,57.39
2023-05-10T10:32:30.727Z,57.39
2023-05-10T10:33:30.716Z,57.27
2023-05-10T10:34:30.667Z,57.29
2023-05-10T10:35:30.659Z,57.28
2023-05-10T10:36:30.832Z,57.21
2023-05-10T10:37:30.665Z,57.31
2023-05-10T10:38:30.638Z,57.28
2023-05-10T10:39:30.836Z,57.32
2023-05-10T10:40:32.056Z,57.37
2023-05-10T10:41:30.839Z,57.47
2023-05-10T10:42:30.684Z,57.37
2023-05-10T10:43:30.631Z,57.45
2023-05-10T10:44:30.604Z,57.50
2023-05-10T10:45:30.594Z,57.46
2023-05-10T10:46:30.629Z,57.57
2023-05-10T10:47:30.665Z,57.91
2023-05-10T10:48:30.579Z,57.12
2023-05-10T10:49:30.566Z,57.49
2023-05-10T10:50:30.584Z,57.48
2023-05-10T10:51:30.593Z,57.48
2023-05-10T10:52:30.552Z,57.49
2023-05-10T10:53:30.654Z,57.54
2023-05-10T10:54:30.576Z,57.51
2023-05-10T10:55:30.647Z,57.50
2023-05-10T10:56:30.666Z,57.62
2023-05-10T10:57:30.889Z,57.67
2023-05-10T10:58:30.765Z,57.68
2023-05-10T10:59:30.823Z,57.76
2023-05-10T11:00:30.877Z,57.88
2023-05-10T11:01:31.051Z,57.91
2023-05-10T11:02:31.404Z,57.86
2023-05-10T11:03:31.502Z,57.99
2023-05-10T11:04:31.151Z,58.24
2023-05-10T11:05:31.180Z,58.29
2023-05-10T11:06:31.266Z,58.18
2023-05-10T11:07:31.297Z,58.02
2023-05-10T11:08:31.361Z,57.87
2023-05-10T11:09:31.917Z,57.84
2023-05-10T11:10:31.481Z,57.78
2023-05-10T11:11:31.553Z,57.81
2023-05-10T11:12:31.613Z,57.81
2023-05-10T11:13:31.652Z,57.89
2023-05-10T11:14:31.711Z,57.82
2023-05-10T11:15:31.739Z,57.87
2023-05-10T11:16:31.886Z,57.89
2023-05-10T11:17:31.813Z,57.89
2023-05-10T11:18:31.882Z,57.89
2023-05-10T11:19:31.798Z,57.89
2023-05-10T11:20:31.844Z,57.90
2023-05-10T11:21:31.817Z,57.92
2023-05-10T11:22:31.828Z,57.91
2023-05-10T11:23:31.856Z,57.90
2023-05-10T11:24:31.811Z,57.88
2023-05-10T11:25:31.839Z,57.90
2023-05-10T11:26:31.797Z,57.84
2023-05-10T11:27:31.791Z,57.85
2023-05-10T11:28:31.784Z,57.83
2023-05-10T11:29:31.787Z,57.81
2023-05-10T11:30:31.823Z,57.81
2023-05-10T11:31:31.808Z,57.82
2023-05-10T11:32:31.852Z,57.76
2023-05-10T11:33:31.796Z,57.73
2023-05-10T11:34:31.775Z,57.71
2023-05-10T11:35:31.790Z,57.70
2023-05-10T11:36:31.779Z,57.67
2023-05-10T11:37:31.776Z,57.65
2023-05-10T11:38:31.784Z,57.61
2023-05-10T11:39:31.780Z,57.60
2023-05-10T11:40:31.791Z,57.62
2023-05-10T11:41:31.836Z,57.53
2023-05-10T11:42:31.810Z,57.52
2023-05-10T11:43:31.823Z,57.47
2023-05-10T11:44:31.828Z,57.47
2023-05-10T11:45:31.848Z,57.49
2023-05-10T11:46:31.890Z,57.48
2023-05-10T11:47:31.844Z,57.41
2023-05-10T11:48:31.826Z,57.37
2023-05-10T11:49:31.824Z,57.40
2023-05-10T11:50:31.830Z,57.37
2023-05-10T11:51:31.836Z,57.37
2023-05-10T11:52:31.854Z,57.31
2023-05-10T11:53:31.871Z,57.24
2023-05-10T11:54:31.862Z,57.17
2023-05-10T11:55:31.876Z,57.18
2023-05-10T11:56:31.911Z,57.14
2023-05-10T11:57:32.043Z,57.12
2023-05-10T11:58:32.367Z,57.11
2023-05-10T11:59:31.946Z,57.14
2023-05-10T12:00:31.933Z,57.10
2023-05-10T12:01:32.364Z,57.05
2023-05-10T12:02:32.028Z,57.03
2023-05-10T12:03:32.235Z,56.97
2023-05-10T12:04:32.038Z,56.95
2023-05-10T12:05:32.013Z,56.95
2023-05-10T12:06:32.216Z,56.93
2023-05-10T12:07:32.065Z,56.91
2023-05-10T12:08:32.088Z,56.87
2023-05-10T12:09:43.307Z,56.83
2023-05-10T12:10:32.083Z,56.81
2023-05-10T12:11:32.077Z,56.82
2023-05-10T12:12:32.071Z,56.76
2023-05-10T12:13:32.080Z,56.74
2023-05-10T12:14:32.080Z,56.75
2023-05-10T12:15:32.041Z,56.71
2023-05-10T12:16:32.109Z,56.71
2023-05-10T12:17:32.414Z,56.65
2023-05-10T12:18:33.027Z,56.64
2023-05-10T12:19:32.011Z,56.60
2023-05-10T12:20:32.059Z,56.56
2023-05-10T12:21:31.997Z,56.58
2023-05-10T12:22:32.001Z,56.56
2023-05-10T12:23:31.987Z,56.53
2023-05-10T12:24:31.986Z,56.52
2023-05-10T12:25:31.978Z,56.48
2023-05-10T12:26:31.960Z,56.46
2023-05-10T12:27:31.959Z,56.47
2023-05-10T12:28:31.946Z,56.43
2023-05-10T12:29:31.972Z,56.40
2023-05-10T12:30:31.949Z,56.35
2023-05-10T12:31:31.936Z,56.35
2023-05-10T12:32:31.939Z,56.29
2023-05-10T12:33:31.919Z,56.26
2023-05-10T12:34:31.934Z,56.24
2023-05-10T12:35:31.903Z,56.20
2023-05-10T12:36:31.899Z,56.20
2023-05-10T12:37:31.909Z,56.16
2023-05-10T12:38:32.054Z,56.13
2023-05-10T12:39:31.961Z,56.14
2023-05-10T12:40:31.995Z,56.14
2023-05-10T12:41:31.988Z,56.05
2023-05-10T12:42:32.007Z,56.05
2023-05-10T12:43:32.391Z,56.09
2023-05-10T12:44:32.061Z,56.03
2023-05-10T12:45:32.162Z,56.03
2023-05-10T12:46:32.195Z,56.02
2023-05-10T12:47:32.134Z,56.03
2023-05-10T12:48:32.151Z,55.94
2023-05-10T12:49:32.159Z,55.95
2023-05-10T12:50:32.180Z,55.94
2023-05-10T12:51:32.410Z,55.92
2023-05-10T12:52:32.218Z,55.91
2023-05-10T12:53:32.231Z,55.86